createdAt,value
2022-09-14T00:01:24.712Z,98980.50
2022-09-14T00:03:52.993Z,99001.34
2022-09-14T00:06:19.424Z,99014.91
2022-09-14T00:08:50.688Z,99018.66
2022-09-14T00:11:17.181Z,99022.53
2022-09-14T00:13:44.805Z,99021.22
2022-09-14T00:16:23.590Z,99030.47
2022-09-14T00:18:52.679Z,99018.25
2022-09-14T00:21:19.412Z,99027.16
2022-09-14T00:23:45.874Z,99018.44
2022-09-14T00:26:14.902Z,99025.84
2022-09-14T00:31:25.897Z,99025.94
2022-09-14T00:33:53.015Z,99043.78
2022-09-14T00:36:26.070Z,99028.78
2022-09-14T00:38:56.396Z,99005.50
2022-09-14T00:41:25.145Z,98986.88
2022-09-14T00:44:08.265Z,98977.16
2022-09-14T00:46:51.801Z,98972.00
2022-09-14T00:49:27.597Z,98968.47
2022-09-14T00:52:08.574Z,98967.16
2022-09-14T00:54:37.537Z,98960.19
2022-09-14T00:57:04.071Z,98954.28
2022-09-14T00:59:35.319Z,98950.84
2022-09-14T01:02:02.354Z,98950.69
2022-09-14T01:04:29.012Z,98952.69
2022-09-14T01:07:02.736Z,98964.06
2022-09-14T01:09:32.106Z,98969.25
2022-09-14T01:12:20.398Z,98973.94
2022-09-14T01:15:03.735Z,98974.31
2022-09-14T01:17:52.685Z,98989.63
2022-09-14T01:20:40.919Z,98993.13
2022-09-14T01:23:30.632Z,98988.28
2022-09-14T01:26:36.792Z,98979.25
2022-09-14T01:29:26.704Z,98978.06
2022-09-14T01:32:03.971Z,98970.84
2022-09-14T01:34:38.096Z,98977.69
2022-09-14T01:37:12.861Z,98971.13
2022-09-14T01:39:46.156Z,98971.50
2022-09-14T01:42:13.139Z,98978.34
2022-09-14T01:44:42.685Z,98980.53
2022-09-14T01:47:14.996Z,98974.50
2022-09-14T01:49:45.056Z,98966.84
2022-09-14T01:52:16.005Z,98969.53
2022-09-14T01:54:51.041Z,98972.22
2022-09-14T01:57:23.271Z,98972.41
2022-09-14T01:59:52.588Z,98969.53
2022-09-14T02:02:35.462Z,98954.47
2022-09-14T02:05:09.405Z,98953.47
2022-09-14T02:07:36.956Z,98951.78
2022-09-14T02:10:05.834Z,98942.06
2022-09-14T02:12:32.335Z,98941.25
2022-09-14T02:14:58.760Z,98940.25
2022-09-14T02:17:26.285Z,98932.41
2022-09-14T02:19:56.095Z,98923.50
2022-09-14T02:22:23.252Z,98925.38
2022-09-14T02:24:50.816Z,98931.53
2022-09-14T02:27:17.216Z,98931.53
2022-09-14T02:29:43.706Z,98929.72
2022-09-14T02:32:24.640Z,98915.66
2022-09-14T02:35:09.622Z,98928.03
2022-09-14T02:37:39.558Z,98917.53
2022-09-14T02:40:54.897Z,98912.31
2022-09-14T02:43:32.757Z,98906.97
2022-09-14T02:46:23.777Z,98900.59
2022-09-14T02:49:05.054Z,98900.59
2022-09-14T02:51:40.252Z,98895.59
2022-09-14T02:54:22.336Z,98888.59
2022-09-14T02:56:49.140Z,98883.22
2022-09-14T02:59:16.410Z,98872.50
2022-09-14T03:01:42.907Z,98872.03
2022-09-14T03:04:09.454Z,98865.00
2022-09-14T03:06:36.078Z,98869.06
2022-09-14T03:09:02.823Z,98875.91
2022-09-14T03:11:29.236Z,98869.53
2022-09-14T03:13:55.651Z,98872.41
2022-09-14T03:16:22.097Z,98867.25
2022-09-14T03:18:48.553Z,98859.22
2022-09-14T03:21:16.367Z,98866.03
2022-09-14T03:23:47.562Z,98870.22
2022-09-14T03:26:19.236Z,98872.03
2022-09-14T03:28:59.001Z,98876.19
2022-09-14T03:31:26.321Z,98866.34
2022-09-14T03:33:55.068Z,98871.56
2022-09-14T03:36:21.471Z,98863.72
2022-09-14T03:38:49.813Z,98858.34
2022-09-14T03:41:19.275Z,98856.69
2022-09-14T03:43:46.084Z,98859.38
2022-09-14T03:46:18.942Z,98854.84
2022-09-14T03:48:45.654Z,98847.00
2022-09-14T03:51:13.268Z,98838.78
2022-09-14T03:53:40.367Z,98832.22
2022-09-14T03:56:08.968Z,98812.47
2022-09-14T03:58:35.402Z,98804.59
2022-09-14T04:01:12.240Z,98808.13
2022-09-14T04:03:38.671Z,98807.94
2022-09-14T04:06:05.643Z,98812.91
2022-09-14T04:08:34.606Z,98819.94
2022-09-14T04:11:01.417Z,98819.94
2022-09-14T04:13:27.847Z,98826.03
2022-09-14T04:16:01.145Z,98826.41
2022-09-14T04:18:28.093Z,98820.66
2022-09-14T04:20:58.914Z,98827.06
2022-09-14T04:23:25.823Z,98830.56
2022-09-14T04:25:53.376Z,98837.94
2022-09-14T04:28:20.878Z,98827.88
2022-09-14T04:31:00.894Z,98839.25
2022-09-14T04:33:30.717Z,98832.41
2022-09-14T04:36:02.227Z,98836.94
2022-09-14T04:38:29.840Z,98842.28
2022-09-14T04:40:57.160Z,98836.09
2022-09-14T04:43:24.621Z,98829.91
2022-09-14T04:45:51.564Z,98825.75
2022-09-14T04:48:18.064Z,98830.66
2022-09-14T04:50:44.540Z,98827.13
2022-09-14T04:53:11.571Z,98826.94
2022-09-14T04:55:38.304Z,98826.94
2022-09-14T04:58:05.081Z,98823.25
2022-09-14T05:00:33.988Z,98827.78
2022-09-14T05:03:00.444Z,98817.41
2022-09-14T05:05:26.899Z,98815.75
2022-09-14T05:07:53.329Z,98819.09
2022-09-14T05:10:19.733Z,98817.25
2022-09-14T05:12:46.153Z,98820.56
2022-09-14T05:15:12.557Z,98823.91
2022-09-14T05:17:38.983Z,98818.38
2022-09-14T05:20:05.955Z,98817.38
2022-09-14T05:22:32.357Z,98823.53
2022-09-14T05:24:58.768Z,98818.00
2022-09-14T05:27:25.196Z,98820.03
2022-09-14T05:29:51.595Z,98828.06
2022-09-14T05:32:18.024Z,98831.38
2022-09-14T05:34:45.457Z,98829.19
2022-09-14T05:37:12.717Z,98841.38
2022-09-14T05:39:39.390Z,98842.66
2022-09-14T05:42:05.962Z,98842.31
2022-09-14T05:44:32.628Z,98841.13
2022-09-14T05:46:59.024Z,98838.44
2022-09-14T05:49:25.513Z,98836.28
2022-09-14T05:51:51.914Z,98833.81
2022-09-14T05:54:18.442Z,98822.09
2022-09-14T05:56:45.020Z,98821.06
2022-09-14T05:59:11.411Z,98821.72
2022-09-14T06:01:37.860Z,98824.19
2022-09-14T06:04:04.573Z,98816.16
2022-09-14T06:06:32.318Z,98813.66
2022-09-14T06:08:59.046Z,98809.69
2022-09-14T06:11:38.112Z,98803.16
2022-09-14T06:14:05.556Z,98800.28
2022-09-14T06:16:31.986Z,98799.25
2022-09-14T06:18:59.590Z,98787.72
2022-09-14T06:21:33.982Z,98785.41
2022-09-14T06:24:00.563Z,98789.47
2022-09-14T06:26:27.002Z,98790.47
2022-09-14T06:28:54.120Z,98787.81
2022-09-14T06:31:22.552Z,98780.44
2022-09-14T06:33:50.376Z,98785.78
2022-09-14T06:36:19.648Z,98801.66
2022-09-14T06:38:51.574Z,98815.53
2022-09-14T06:41:20.644Z,98827.91
2022-09-14T06:43:47.560Z,98819.69
2022-09-14T06:46:23.436Z,98832.06
2022-09-14T06:48:55.576Z,98827.16
2022-09-14T06:51:28.815Z,98834.19
2022-09-14T06:53:56.563Z,98837.88
2022-09-14T06:56:22.955Z,98832.50
2022-09-14T06:58:50.462Z,98836.03
2022-09-14T07:01:19.655Z,98825.31
2022-09-14T07:03:46.948Z,98831.69
2022-09-14T07:06:19.680Z,98830.03
2022-09-14T07:08:46.762Z,98834.47
2022-09-14T07:11:14.769Z,98840.84
2022-09-14T07:13:41.191Z,98836.69
2022-09-14T07:16:08.084Z,98818.75
2022-09-14T07:18:35.354Z,98813.84
2022-09-14T07:21:10.811Z,98813.31
2022-09-14T07:23:38.930Z,98812.75
2022-09-14T07:26:07.659Z,98799.00
2022-09-14T07:28:35.228Z,98779.88
2022-09-14T07:31:01.763Z,98783.81
2022-09-14T07:33:28.924Z,98794.19
2022-09-14T07:35:55.674Z,98799.75
2022-09-14T07:38:35.772Z,98801.38
2022-09-14T07:41:08.623Z,98815.91
2022-09-14T07:43:35.267Z,98811.66
2022-09-14T07:46:04.309Z,98812.38
2022-09-14T07:48:33.210Z,98833.28
2022-09-14T07:51:01.214Z,98831.63
2022-09-14T07:53:27.598Z,98828.28
2022-09-14T07:55:53.989Z,98819.97
2022-09-14T07:58:20.445Z,98818.28
2022-09-14T08:00:46.838Z,98816.06
2022-09-14T08:03:13.197Z,98808.13
2022-09-14T08:05:39.591Z,98804.53
2022-09-14T08:08:06.267Z,98813.66
2022-09-14T08:10:35.130Z,98822.53
2022-09-14T08:13:01.510Z,98827.00
2022-09-14T08:15:28.767Z,98828.38
2022-09-14T08:17:55.659Z,98841.31
2022-09-14T08:20:22.179Z,98849.19
2022-09-14T08:22:48.556Z,98848.25
2022-09-14T08:25:15.069Z,98856.56
2022-09-14T08:27:41.441Z,98840.09
2022-09-14T08:30:08.492Z,98843.63
2022-09-14T08:32:34.914Z,98841.88
2022-09-14T08:35:02.151Z,98847.69
2022-09-14T08:37:28.506Z,98858.41
2022-09-14T08:39:54.895Z,98873.38
2022-09-14T08:42:24.873Z,98882.28
2022-09-14T08:44:58.884Z,98883.47
2022-09-14T08:47:32.176Z,98879.88
2022-09-14T08:50:06.028Z,98887.09
2022-09-14T08:52:39.585Z,98887.63
2022-09-14T08:55:43.619Z,98901.84
2022-09-14T08:58:09.885Z,98909.44
2022-09-14T09:00:55.281Z,98914.69
2022-09-14T09:03:38.425Z,98912.41
2022-09-14T09:06:31.807Z,98890.47
2022-09-14T09:09:08.817Z,98885.78
2022-09-14T09:11:43.679Z,98891.59
2022-09-14T09:14:18.684Z,98894.25
2022-09-14T09:16:49.313Z,98899.09
2022-09-14T09:19:23.943Z,98900.94
2022-09-14T09:21:52.304Z,98895.75
2022-09-14T09:24:25.957Z,98882.34
2022-09-14T09:26:52.499Z,98889.56
2022-09-14T09:29:19.039Z,98875.50
2022-09-14T09:32:05.801Z,98879.66
2022-09-14T09:34:50.564Z,98891.41
2022-09-14T09:37:46.298Z,98885.22
2022-09-14T09:40:31.234Z,98874.16
2022-09-14T09:43:06.072Z,98873.84
2022-09-14T09:46:02.785Z,98870.44
2022-09-14T09:48:37.960Z,98871.38
2022-09-14T09:51:24.161Z,98863.31
2022-09-14T09:53:53.522Z,98855.09
2022-09-14T09:56:29.486Z,98849.16
2022-09-14T09:58:55.923Z,98836.41
2022-09-14T10:01:28.331Z,98841.88
2022-09-14T10:04:07.457Z,98824.28
2022-09-14T10:06:45.660Z,98816.72
2022-09-14T10:09:23.210Z,98815.97
2022-09-14T10:12:00.890Z,98805.63
2022-09-14T10:14:31.248Z,98803.81
2022-09-14T10:17:06.338Z,98800.03
2022-09-14T10:19:33.128Z,98791.19
2022-09-14T10:22:27.858Z,98802.38
2022-09-14T10:24:59.778Z,98802.59
2022-09-14T10:27:37.708Z,98799.16
2022-09-14T10:30:07.301Z,98801.44
2022-09-14T10:32:34.349Z,98789.69
2022-09-14T10:35:00.865Z,98786.81
2022-09-14T10:37:41.707Z,98779.84
2022-09-14T10:40:16.492Z,98777.88
2022-09-14T10:42:49.310Z,98781.25
2022-09-14T10:45:31.319Z,98769.72
2022-09-14T10:48:07.791Z,98761.34
2022-09-14T10:50:57.996Z,98756.13
2022-09-14T10:53:45.121Z,98760.31
2022-09-14T10:56:17.394Z,98747.13
2022-09-14T10:59:02.701Z,98752.94
2022-09-14T11:01:45.066Z,98743.47
2022-09-14T11:04:16.696Z,98739.34
2022-09-14T11:07:04.832Z,98748.06
2022-09-14T11:09:42.048Z,98743.13
2022-09-14T11:12:17.515Z,98745.88
2022-09-14T11:14:52.923Z,98745.94
2022-09-14T11:17:56.574Z,98735.66
2022-09-14T11:20:42.585Z,98742.09
2022-09-14T11:23:26.465Z,98745.88
2022-09-14T11:25:57.938Z,98741.56
2022-09-14T11:28:40.133Z,98730.38
2022-09-14T11:31:12.299Z,98734.53
2022-09-14T11:33:41.203Z,98729.81
2022-09-14T11:36:17.306Z,98722.56
2022-09-14T11:38:49.109Z,98724.84
2022-09-14T11:41:56.925Z,98714.50
2022-09-14T11:44:34.136Z,98718.00
2022-09-14T11:47:13.679Z,98719.88
2022-09-14T11:50:01.066Z,98719.47
2022-09-14T11:52:29.951Z,98715.34
2022-09-14T11:54:57.085Z,98709.75
2022-09-14T11:57:28.852Z,98721.97
2022-09-14T12:00:02.483Z,98709.97
2022-09-14T12:02:37.284Z,98712.84
2022-09-14T12:05:10.492Z,98714.31
2022-09-14T12:07:39.830Z,98712.84
2022-09-14T12:10:15.553Z,98708.06
2022-09-14T12:12:54.131Z,98702.09
2022-09-14T12:15:26.869Z,98698.75
2022-09-14T12:18:24.026Z,98691.94
2022-09-14T12:21:00.809Z,98685.56
2022-09-14T12:23:39.361Z,98699.41
2022-09-14T12:26:19.717Z,98689.88
2022-09-14T12:28:48.622Z,98696.69
2022-09-14T12:31:56.683Z,98702.31
2022-09-14T12:34:33.087Z,98703.75
2022-09-14T12:37:02.866Z,98709.97
2022-09-14T12:39:34.328Z,98701.88
2022-09-14T12:42:05.672Z,98706.03
2022-09-14T12:44:40.913Z,98711.63
2022-09-14T12:47:25.971Z,98716.19
2022-09-14T12:49:53.810Z,98712.44
2022-09-14T12:52:32.722Z,98716.38
2022-09-14T12:55:21.794Z,98710.19
2022-09-14T12:57:55.251Z,98716.38
2022-09-14T13:00:22.456Z,98711.22
2022-09-14T13:03:14.707Z,98700.44
2022-09-14T13:05:43.857Z,98697.34
2022-09-14T13:08:11.195Z,98685.34
2022-09-14T13:10:44.291Z,98672.09
2022-09-14T13:13:19.330Z,98677.41
2022-09-14T13:15:58.626Z,98668.94
2022-09-14T13:18:28.890Z,98651.34
2022-09-14T13:20:57.388Z,98653.19
2022-09-14T13:23:41.647Z,98653.63
2022-09-14T13:26:15.692Z,98646.38
2022-09-14T13:28:44.485Z,98646.59
2022-09-14T13:31:19.361Z,98642.25
2022-09-14T13:33:50.726Z,98645.97
2022-09-14T13:36:22.760Z,98643.69
2022-09-14T13:38:49.660Z,98647.19
2022-09-14T13:41:17.831Z,98651.75
2022-09-14T13:43:45.271Z,98655.28
2022-09-14T13:46:11.855Z,98653.22
2022-09-14T13:48:41.915Z,98650.31
2022-09-14T13:51:09.928Z,98656.13
2022-09-14T13:53:45.671Z,98633.75
2022-09-14T13:56:30.961Z,98640.38
2022-09-14T13:59:12.567Z,98633.75
2022-09-14T14:01:41.599Z,98630.66
2022-09-14T14:04:22.834Z,98625.25
2022-09-14T14:07:01.064Z,98622.56
2022-09-14T14:09:38.575Z,98629.84
2022-09-14T14:12:05.044Z,98615.72
2022-09-14T14:14:31.772Z,98618.22
2022-09-14T14:17:30.067Z,98611.59
2022-09-14T14:19:58.227Z,98609.53
2022-09-14T14:22:35.440Z,98596.69
2022-09-14T14:25:17.789Z,98606.22
2022-09-14T14:27:46.694Z,98602.88
2022-09-14T14:30:17.502Z,98607.84
2022-09-14T14:32:44.396Z,98600.78
2022-09-14T14:35:20.027Z,98609.28
2022-09-14T14:37:47.717Z,98613.47
2022-09-14T14:40:15.241Z,98613.88
2022-09-14T14:42:42.145Z,98604.75
2022-09-14T14:45:13.916Z,98598.94
2022-09-14T14:47:40.399Z,98591.66
2022-09-14T14:50:17.799Z,98589.41
2022-09-14T14:52:44.251Z,98583.63
2022-09-14T14:55:10.967Z,98582.78
2022-09-14T14:57:38.824Z,98578.03
2022-09-14T15:00:11.739Z,98568.91
2022-09-14T15:02:38.130Z,98569.16
2022-09-14T15:05:04.929Z,98574.31
2022-09-14T15:07:33.074Z,98579.72
2022-09-14T15:10:02.344Z,98568.94
2022-09-14T15:12:28.732Z,98568.94
2022-09-14T15:14:55.129Z,98579.09
2022-09-14T15:17:21.579Z,98578.25
2022-09-14T15:19:47.971Z,98574.34
2022-09-14T15:22:14.354Z,98574.13
2022-09-14T15:24:40.771Z,98572.28
2022-09-14T15:27:07.476Z,98573.50
2022-09-14T15:29:33.879Z,98572.91
2022-09-14T15:32:00.340Z,98567.09
2022-09-14T15:34:26.809Z,98570.63
2022-09-14T15:36:53.950Z,98561.31
2022-09-14T15:39:25.429Z,98569.78
2022-09-14T15:41:52.316Z,98577.03
2022-09-14T15:44:18.856Z,98565.03
2022-09-14T15:46:46.751Z,98568.97
2022-09-14T15:49:21.788Z,98578.06
2022-09-14T15:51:52.523Z,98585.91
2022-09-14T15:54:22.981Z,98573.88
2022-09-14T15:56:51.383Z,98570.38
2022-09-14T15:59:18.698Z,98569.31
2022-09-14T16:01:45.423Z,98571.78
2022-09-14T16:04:12.072Z,98570.16
2022-09-14T16:06:38.599Z,98575.94
2022-09-14T16:09:07.441Z,98583.59
2022-09-14T16:11:34.853Z,98581.53
2022-09-14T16:14:01.706Z,98582.53
2022-09-14T16:16:28.807Z,98590.59
2022-09-14T16:18:55.691Z,98598.69
2022-09-14T16:21:24.473Z,98606.34
2022-09-14T16:23:54.692Z,98608.63
2022-09-14T16:26:39.476Z,98615.03
2022-09-14T16:29:08.339Z,98612.13
2022-09-14T16:31:36.736Z,98606.13
2022-09-14T16:34:06.651Z,98616.84
2022-09-14T16:36:35.888Z,98611.69
2022-09-14T16:39:05.163Z,98615.59
2022-09-14T16:41:32.133Z,98613.34
2022-09-14T16:43:59.994Z,98610.88
2022-09-14T16:46:28.723Z,98613.13
2022-09-14T16:48:55.702Z,98621.56
2022-09-14T16:51:24.218Z,98634.41
2022-09-14T16:53:51.615Z,98638.94
2022-09-14T16:56:26.805Z,98635.00
2022-09-14T16:58:54.361Z,98635.84
2022-09-14T17:01:24.833Z,98639.13
2022-09-14T17:03:52.582Z,98631.66
2022-09-14T17:06:23.103Z,98634.97
2022-09-14T17:08:52.179Z,98644.69
2022-09-14T17:11:18.574Z,98650.44
2022-09-14T17:13:46.257Z,98667.56
2022-09-14T17:16:15.677Z,98638.03
2022-09-14T17:18:43.463Z,98618.59
2022-09-14T17:21:12.291Z,98602.19
2022-09-14T17:23:38.834Z,98599.25
2022-09-14T17:26:07.313Z,98602.31
2022-09-14T17:28:34.998Z,98605.16
2022-09-14T17:31:02.937Z,98593.97
2022-09-14T17:33:29.897Z,98597.50
2022-09-14T17:35:58.266Z,98570.22
2022-09-14T17:38:27.216Z,98591.72
2022-09-14T17:41:04.784Z,98590.03
2022-09-14T17:43:32.460Z,98607.63
2022-09-14T17:45:59.271Z,98603.69
2022-09-14T17:48:27.762Z,98604.34
2022-09-14T17:50:54.833Z,98616.53
2022-09-14T17:53:21.536Z,98618.00
2022-09-14T17:55:48.307Z,98616.34
2022-09-14T17:58:19.452Z,98631.44
2022-09-14T18:00:46.245Z,98640.75
2022-09-14T18:03:12.877Z,98644.28
2022-09-14T18:05:39.335Z,98656.47
2022-09-14T18:08:05.785Z,98664.38
2022-09-14T18:10:32.188Z,98652.56
2022-09-14T18:13:01.573Z,98661.69
2022-09-14T18:15:27.993Z,98678.75
2022-09-14T18:17:54.440Z,98677.84
2022-09-14T18:20:20.972Z,98680.06
2022-09-14T18:22:47.445Z,98694.25
2022-09-14T18:25:13.885Z,98694.00
2022-09-14T18:27:40.342Z,98693.97
2022-09-14T18:30:07.633Z,98698.25
2022-09-14T18:32:34.317Z,98697.38
2022-09-14T18:35:01.050Z,98696.66
2022-09-14T18:37:27.454Z,98707.97
2022-09-14T18:39:53.985Z,98702.16
2022-09-14T18:42:20.383Z,98700.44
2022-09-14T18:44:47.035Z,98686.59
2022-09-14T18:47:13.688Z,98692.31
2022-09-14T18:49:40.103Z,98689.59
2022-09-14T18:52:07.307Z,98696.88
2022-09-14T18:54:33.795Z,98704.66
2022-09-14T18:57:00.245Z,98706.53
2022-09-14T18:59:26.715Z,98711.03
2022-09-14T19:01:53.210Z,98721.97
2022-09-14T19:04:19.700Z,98731.97
2022-09-14T19:06:46.125Z,98739.47
2022-09-14T19:09:12.610Z,98745.97
2022-09-14T19:11:39.078Z,98747.91
2022-09-14T19:14:09.999Z,98744.75
2022-09-14T19:16:38.994Z,98737.91
2022-09-14T19:19:11.852Z,98743.81
2022-09-14T19:21:38.306Z,98743.19
2022-09-14T19:24:10.312Z,98733.50
2022-09-14T19:26:43.924Z,98735.34
2022-09-14T19:29:13.271Z,98722.50
2022-09-14T19:31:39.877Z,98719.28
2022-09-14T19:34:06.760Z,98728.31
2022-09-14T19:36:34.746Z,98717.97
2022-09-14T19:39:01.909Z,98706.81
2022-09-14T19:41:35.297Z,98702.66
2022-09-14T19:44:02.623Z,98710.69
2022-09-14T19:46:33.242Z,98706.34
2022-09-14T19:48:59.719Z,98719.56
2022-09-14T19:51:29.005Z,98728.25
2022-09-14T19:53:58.992Z,98734.41
2022-09-14T19:56:29.449Z,98731.09
2022-09-14T19:59:01.269Z,98732.56
2022-09-14T20:01:30.992Z,98741.44
2022-09-14T20:03:59.247Z,98730.94
2022-09-14T20:06:31.363Z,98730.25
2022-09-14T20:09:03.886Z,98727.13
2022-09-14T20:11:32.098Z,98730.00
2022-09-14T20:14:02.460Z,98718.25
2022-09-14T20:16:30.174Z,98724.25
2022-09-14T20:18:58.630Z,98713.72
2022-09-14T20:21:26.419Z,98720.28
2022-09-14T20:24:17.366Z,98723.16
2022-09-14T20:26:48.755Z,98718.81
2022-09-14T20:29:16.203Z,98726.66
2022-09-14T20:31:42.750Z,98744.38
2022-09-14T20:34:09.622Z,98745.25
2022-09-14T20:36:36.417Z,98745.59
2022-09-14T20:39:03.658Z,98754.34
2022-09-14T20:41:33.101Z,98750.38
2022-09-14T20:43:59.745Z,98756.09
2022-09-14T20:46:27.977Z,98769.81
2022-09-14T20:48:54.630Z,98781.91
2022-09-14T20:51:23.705Z,98783.00
2022-09-14T20:53:50.272Z,98774.84
2022-09-14T20:56:23.244Z,98778.56
2022-09-14T20:58:55.898Z,98776.22
2022-09-14T21:01:24.889Z,98768.38
2022-09-14T21:03:51.605Z,98763.03
2022-09-14T21:06:22.996Z,98775.75
2022-09-14T21:08:49.507Z,98764.22
2022-09-14T21:11:21.771Z,98771.44
2022-09-14T21:13:49.653Z,98762.06
2022-09-14T21:16:19.236Z,98759.41
2022-09-14T21:18:47.680Z,98765.41
2022-09-14T21:21:16.915Z,98760.72
2022-09-14T21:23:43.253Z,98750.66
2022-09-14T21:26:10.935Z,98742.91
2022-09-14T21:28:39.057Z,98743.38
2022-09-14T21:31:08.380Z,98753.09
2022-09-14T21:33:36.019Z,98750.22
2022-09-14T21:36:22.621Z,98746.34
2022-09-14T21:38:50.566Z,98743.97
2022-09-14T21:41:18.517Z,98746.44
2022-09-14T21:43:45.043Z,98735.75
2022-09-14T21:46:11.930Z,98736.59
2022-09-14T21:48:38.477Z,98736.41
2022-09-14T21:51:21.191Z,98740.94
2022-09-14T21:53:59.382Z,98745.09
2022-09-14T21:56:27.648Z,98748.59
2022-09-14T21:58:56.817Z,98747.56
2022-09-14T22:01:24.211Z,98746.38
2022-09-14T22:03:52.073Z,98741.03
2022-09-14T22:06:20.510Z,98744.25
2022-09-14T22:08:47.074Z,98750.78
2022-09-14T22:11:18.250Z,98730.75
2022-09-14T22:14:02.397Z,98737.13
2022-09-14T22:16:30.951Z,98740.81
2022-09-14T22:18:58.845Z,98733.16
2022-09-14T22:21:27.497Z,98733.63
2022-09-14T22:23:59.026Z,98725.78
2022-09-14T22:26:27.832Z,98729.28
2022-09-14T22:28:54.591Z,98726.59
2022-09-14T22:31:22.601Z,98735.09
2022-09-14T22:33:50.180Z,98730.38
2022-09-14T22:36:17.044Z,98727.91
2022-09-14T22:38:43.439Z,98737.78
2022-09-14T22:41:11.745Z,98737.59
2022-09-14T22:43:38.815Z,98738.25
2022-09-14T22:46:06.267Z,98753.56
2022-09-14T22:48:33.263Z,98753.56
2022-09-14T22:51:00.314Z,98761.28
2022-09-14T22:53:27.935Z,98756.09
2022-09-14T22:55:55.142Z,98755.22
2022-09-14T22:58:27.363Z,98761.78
2022-09-14T23:00:53.925Z,98756.44
2022-09-14T23:03:20.512Z,98761.44
2022-09-14T23:05:53.585Z,98761.28
2022-09-14T23:08:20.093Z,98763.25
2022-09-14T23:10:47.819Z,98770.47
2022-09-14T23:13:15.282Z,98769.34
2022-09-14T23:15:42.114Z,98772.78
2022-09-14T23:18:08.649Z,98766.28
2022-09-14T23:20:39.736Z,98759.63
2022-09-14T23:23:06.552Z,98754.47
2022-09-14T23:25:37.297Z,98754.28
2022-09-14T23:28:04.785Z,98766.47
2022-09-14T23:30:32.033Z,98752.63
2022-09-14T23:33:11.651Z,98753.81
2022-09-14T23:35:38.105Z,98751.50
2022-09-14T23:38:04.582Z,98747.97
2022-09-14T23:40:31.045Z,98748.44
2022-09-14T23:42:57.490Z,98747.44
2022-09-14T23:45:23.921Z,98740.91
2022-09-14T23:47:50.337Z,98741.56
2022-09-14T23:50:16.849Z,98738.88
2022-09-14T23:52:43.263Z,98742.56
2022-09-14T23:55:13.675Z,98741.44
2022-09-14T23:57:40.082Z,98745.13
